Time;durP1;ratioP1;P1;durP2;ratioP2;P2;SDS_P1;SDS_P2;PMS_P1;PMS_P2;Temp;Humidity;BMP_temperature;BMP_pressure;BME280_temperature;BME280_humidity;BME280_pressure;Samples;Min_cycle;Max_cycle;Signal;HPM_P1;HPM_P2
2023/04/27 00:02:19;;;;;;;2.63;1.90;;;;;;;3.92;100.00;101842.25;4975372;28;20236;-70
2023/04/27 00:04:44;;;;;;;4.60;1.90;;;;;;;4.75;100.00;101982.09;4975858;28;20202;-71
2023/04/27 00:07:09;;;;;;;3.57;1.70;;;;;;;5.13;100.00;102001.00;4975900;28;20209;-71
2023/04/27 00:09:35;;;;;;;3.03;1.67;;;;;;;5.06;100.00;101991.84;4978675;28;20428;-70
2023/04/27 00:12:00;;;;;;;2.33;1.40;;;;;;;5.21;100.00;102033.09;4978797;28;20570;-70
2023/04/27 00:14:27;;;;;;;4.60;2.10;;;;;;;3.92;100.00;101844.91;4981618;28;20181;-70
2023/04/27 00:16:53;;;;;;;4.10;1.97;;;;;;;4.86;100.00;101990.94;4965929;28;20201;-70
2023/04/27 00:19:18;;;;;;;2.73;1.63;;;;;;;4.59;100.00;101904.66;4978268;28;20460;-70
2023/04/27 00:21:43;;;;;;;4.57;1.73;;;;;;;5.57;100.00;102066.25;4966183;28;20544;-71
2023/04/27 00:24:09;;;;;;;4.27;1.80;;;;;;;4.65;100.00;101906.78;4979900;28;20189;-71
2023/04/27 00:26:35;;;;;;;3.90;2.17;;;;;;;4.78;100.00;101934.97;4979448;28;20223;-70
2023/04/27 00:29:00;;;;;;;4.20;2.17;;;;;;;5.17;100.00;102011.22;4981698;28;20220;-71
2023/04/27 00:31:25;;;;;;;2.10;1.90;;;;;;;5.23;100.00;102009.84;4979566;28;20186;-71
2023/04/27 00:33:51;;;;;;;3.10;1.90;;;;;;;4.78;100.00;101938.47;4980554;28;20770;-71
2023/04/27 00:36:16;;;;;;;3.90;1.83;;;;;;;5.41;100.00;102039.31;4981159;28;20182;-71
2023/04/27 00:38:42;;;;;;;3.20;1.90;;;;;;;4.60;100.00;101921.44;4979346;28;20178;-71
2023/04/27 00:41:07;;;;;;;4.20;1.90;;;;;;;4.76;100.00;101945.72;4978921;28;20609;-71
2023/04/27 00:43:41;;;;;;;4.43;1.93;;;;;;;4.92;100.00;101950.56;4977666;28;20179;-70
2023/04/27 00:46:07;;;;;;;3.00;1.73;;;;;;;4.97;100.00;101961.59;4978616;28;20229;-71
2023/04/27 00:48:32;;;;;;;3.27;1.97;;;;;;;4.60;100.00;101902.84;4971308;28;20468;-70
2023/04/27 00:50:58;;;;;;;4.10;1.93;;;;;;;5.12;100.00;101996.63;4981778;28;20370;-71
2023/04/27 00:53:24;;;;;;;4.87;1.73;;;;;;;4.35;100.00;101886.38;4973865;28;20201;-70
2023/04/27 00:55:49;;;;;;;2.33;2.00;;;;;;;4.67;100.00;101950.00;4976971;28;21111;-70
2023/04/27 00:58:15;;;;;;;5.70;2.20;;;;;;;4.01;100.00;101867.19;4971379;28;20468;-70
2023/04/27 01:00:41;;;;;;;2.10;1.90;;;;;;;4.47;100.00;101916.34;4972702;28;20194;-70
2023/04/27 01:03:07;;;;;;;3.10;1.70;;;;;;;4.46;100.00;101943.91;4977389;28;20194;-71
2023/04/27 01:05:33;;;;;;;4.63;2.13;;;;;;;5.10;100.00;102026.03;4974994;28;20468;-71
2023/04/27 01:07:59;;;;;;;3.60;1.97;;;;;;;4.21;100.00;101879.59;4973196;28;20210;-70
2023/04/27 01:10:24;;;;;;;2.30;2.00;;;;;;;4.28;100.00;101941.84;4977821;28;20445;-70
2023/04/27 01:12:50;;;;;;;2.90;1.63;;;;;;;5.07;100.00;102031.63;4979597;28;20178;-70
2023/04/27 01:15:15;;;;;;;8.30;2.20;;;;;;;4.69;100.00;101937.44;4976616;28;20190;-70
2023/04/27 01:17:41;;;;;;;2.57;1.87;;;;;;;4.23;100.00;101898.91;4971516;28;20770;-70
2023/04/27 01:20:10;;;;;;;5.10;2.67;;;;;;;4.73;100.00;101977.88;4973887;28;20186;-70
2023/04/27 01:22:36;;;;;;;4.73;2.00;;;;;;;5.11;100.00;102037.53;4976617;28;20451;-70
2023/04/27 01:25:01;;;;;;;5.87;2.40;;;;;;;4.50;100.00;101938.19;4977717;28;20976;-70
2023/04/27 01:27:27;;;;;;;2.93;1.90;;;;;;;5.06;100.00;102021.94;4963507;28;20472;-70
2023/04/27 01:29:52;;;;;;;5.57;2.57;;;;;;;5.19;100.00;102041.19;4980664;28;20173;-70
2023/04/27 01:32:17;;;;;;;8.00;2.80;;;;;;;4.83;100.00;101992.06;4980296;28;20271;-70
2023/04/27 01:34:43;;;;;;;4.33;2.40;;;;;;;4.99;100.00;102010.19;4978793;28;20197;-70
2023/04/27 01:37:08;;;;;;;6.30;2.97;;;;;;;5.04;100.00;102042.53;4980502;28;20228;-70
2023/04/27 01:39:34;;;;;;;4.20;2.57;;;;;;;5.30;100.00;102045.59;4978670;28;20195;-70
2023/04/27 01:42:02;;;;;;;9.60;2.93;;;;;;;4.72;100.00;101915.91;4980023;28;20187;-70
2023/04/27 01:44:27;;;;;;;4.70;2.77;;;;;;;5.50;100.00;102029.69;4973915;28;20190;-70
2023/04/27 01:46:53;;;;;;;4.37;2.53;;;;;;;5.31;100.00;102017.16;4973643;28;20890;-71
2023/04/27 01:49:18;;;;;;;4.87;2.50;;;;;;;5.40;100.00;102030.47;4979727;28;20672;-70
2023/04/27 01:51:44;;;;;;;3.00;2.20;;;;;;;4.32;100.00;101923.00;4977299;28;20644;-71
2023/04/27 01:54:09;;;;;;;3.43;2.37;;;;;;;4.76;100.00;101975.78;4978761;28;20205;-71
2023/04/27 01:56:34;;;;;;;4.03;2.43;;;;;;;4.38;100.00;101923.31;4964514;28;20707;-70
2023/04/27 01:59:00;;;;;;;7.87;2.33;;;;;;;4.98;100.00;102019.13;5011881;23;20238;-68
2023/04/27 02:01:25;;;;;;;4.87;2.37;;;;;;;5.06;100.00;102029.09;5022154;28;20963;-69
2023/04/27 02:03:51;;;;;;;4.13;2.10;;;;;;;4.87;100.00;102022.72;5015009;28;20192;-69
2023/04/27 02:06:16;;;;;;;5.77;2.10;;;;;;;4.76;100.00;102020.13;5020820;28;20266;-68
2023/04/27 02:08:41;;;;;;;5.53;2.10;;;;;;;4.90;100.00;102032.25;5011097;28;20286;-68
2023/04/27 02:11:07;;;;;;;2.30;2.10;;;;;;;4.85;100.00;102016.69;5007336;28;20193;-69
2023/04/27 02:13:33;;;;;;;3.60;2.47;;;;;;;4.92;100.00;102033.81;4987668;28;20189;-69
2023/04/27 02:16:00;;;;;;;2.73;2.20;;;;;;;4.85;100.00;102035.28;5009642;28;20520;-68
2023/04/27 02:18:26;;;;;;;2.70;2.50;;;;;;;4.75;100.00;102031.75;5007888;28;20656;-68
2023/04/27 02:20:52;;;;;;;3.77;2.40;;;;;;;4.84;100.00;102035.44;5004923;28;20440;-69
2023/04/27 02:23:17;;;;;;;7.30;2.53;;;;;;;4.55;100.00;101985.63;5006808;28;20458;-69
2023/04/27 02:25:45;;;;;;;3.60;2.40;;;;;;;4.58;100.00;102033.19;4999244;28;20606;-68
2023/04/27 02:28:12;;;;;;;3.13;2.40;;;;;;;4.58;100.00;102046.47;5001132;28;20205;-68
2023/04/27 02:30:37;;;;;;;3.00;2.20;;;;;;;4.64;100.00;102039.81;5001223;28;20452;-69
2023/04/27 02:33:03;;;;;;;2.40;2.20;;;;;;;4.49;100.00;101968.38;5000846;28;20466;-68
2023/04/27 02:35:31;;;;;;;3.80;2.40;;;;;;;4.81;100.00;102043.69;5000172;28;20181;-68
2023/04/27 02:37:56;;;;;;;4.30;2.50;;;;;;;4.58;100.00;102043.81;5004475;28;20463;-69
2023/04/27 02:40:22;;;;;;;3.33;2.40;;;;;;;4.60;100.00;102031.25;5002588;28;21132;-68
2023/04/27 02:42:47;;;;;;;3.50;2.37;;;;;;;4.50;100.00;102007.25;4994378;28;20699;-69
2023/04/27 02:45:13;;;;;;;3.80;2.63;;;;;;;4.62;100.00;102029.28;5004079;28;20599;-69
2023/04/27 02:47:38;;;;;;;4.70;2.40;;;;;;;4.37;100.00;101972.09;4997869;28;20208;-68
2023/04/27 02:50:04;;;;;;;2.20;2.00;;;;;;;4.71;100.00;102020.53;5001297;28;20581;-68
2023/04/27 02:52:30;;;;;;;4.43;2.23;;;;;;;4.68;100.00;102011.97;5001463;28;20228;-68
2023/04/27 02:54:56;;;;;;;4.60;2.20;;;;;;;4.66;100.00;102041.34;4999682;28;20853;-68
2023/04/27 02:57:21;;;;;;;4.63;2.23;;;;;;;4.97;100.00;102041.38;5001663;28;20201;-68
2023/04/27 02:59:47;;;;;;;3.93;2.47;;;;;;;4.32;100.00;101974.31;5000262;28;20475;-68
2023/04/27 03:02:12;;;;;;;4.20;2.60;;;;;;;4.61;100.00;101971.81;5004626;28;21177;-68
2023/04/27 03:04:37;;;;;;;3.70;1.90;;;;;;;4.27;100.00;101950.78;5001062;28;20694;-69
2023/04/27 03:07:03;;;;;;;4.23;2.30;;;;;;;4.08;100.00;101958.63;5000117;28;20203;-68
2023/04/27 03:09:28;;;;;;;5.53;2.43;;;;;;;4.52;100.00;101994.69;5001340;28;20213;-68
2023/04/27 03:11:54;;;;;;;4.63;2.73;;;;;;;4.80;100.00;102010.06;4979986;28;20243;-68
2023/04/27 03:14:20;;;;;;;2.47;2.20;;;;;;;4.39;100.00;101995.88;5001499;28;20727;-68
2023/04/27 03:16:45;;;;;;;3.53;2.80;;;;;;;4.82;100.00;102037.38;4998388;28;20475;-68
2023/04/27 03:19:11;;;;;;;2.40;2.07;;;;;;;4.85;100.00;102037.94;4998867;28;20209;-68
2023/04/27 03:21:36;;;;;;;4.60;2.57;;;;;;;4.48;100.00;102030.47;4994465;28;20189;-68
2023/04/27 03:24:02;;;;;;;2.30;2.10;;;;;;;4.38;100.00;102000.34;4996729;28;20318;-68
2023/04/27 03:26:28;;;;;;;3.23;2.60;;;;;;;4.72;100.00;102043.50;5000109;28;20228;-68
2023/04/27 03:28:54;;;;;;;2.33;1.93;;;;;;;4.25;100.00;101975.78;4997398;28;20474;-68
2023/04/27 03:31:20;;;;;;;3.83;2.67;;;;;;;4.54;100.00;102039.72;4999132;28;20193;-68
2023/04/27 03:33:45;;;;;;;3.30;2.90;;;;;;;4.66;100.00;102035.22;4997835;28;20197;-68
2023/04/27 03:36:11;;;;;;;3.20;2.40;;;;;;;4.43;100.00;102045.97;5000776;28;20228;-69
2023/04/27 03:38:37;;;;;;;4.40;2.87;;;;;;;4.39;100.00;102030.41;5000889;28;20205;-68
2023/04/27 03:41:02;;;;;;;3.73;2.50;;;;;;;4.33;100.00;102047.69;4999504;28;20192;-68
2023/04/27 03:43:28;;;;;;;3.47;2.50;;;;;;;4.43;100.00;102045.97;4996069;28;20624;-68
2023/04/27 03:45:53;;;;;;;3.80;2.67;;;;;;;4.47;100.00;102038.56;5001325;28;20212;-68
2023/04/27 03:48:19;;;;;;;3.60;2.43;;;;;;;4.22;100.00;102045.97;5000841;28;20221;-68
2023/04/27 03:50:45;;;;;;;4.00;2.63;;;;;;;4.22;100.00;102045.09;5000730;28;20205;-68
2023/04/27 03:53:11;;;;;;;4.17;2.70;;;;;;;3.74;100.00;102019.81;5001902;28;20276;-69
2023/04/27 03:55:41;;;;;;;4.70;2.47;;;;;;;4.04;100.00;102042.97;5001411;28;20486;-68
2023/04/27 03:58:06;;;;;;;3.37;2.43;;;;;;;3.69;100.00;102029.13;5004295;28;20478;-68
2023/04/27 04:00:33;;;;;;;3.13;2.67;;;;;;;3.74;100.00;101985.31;5000393;28;20435;-69
2023/04/27 04:02:58;;;;;;;4.53;2.57;;;;;;;3.95;100.00;102029.63;4998458;28;20208;-68
2023/04/27 04:05:24;;;;;;;3.10;2.80;;;;;;;3.82;100.00;102000.63;5003160;28;20820;-68
2023/04/27 04:07:49;;;;;;;2.47;2.20;;;;;;;4.06;100.00;102043.72;5000863;28;20213;-68
2023/04/27 04:10:15;;;;;;;2.83;2.63;;;;;;;3.96;100.00;102004.75;5002979;28;20268;-69
2023/04/27 04:12:40;;;;;;;3.30;2.70;;;;;;;3.98;100.00;102018.75;5002999;28;20185;-68
2023/04/27 04:15:06;;;;;;;3.07;2.77;;;;;;;3.65;100.00;101975.47;5000265;28;20192;-69
2023/04/27 04:17:32;;;;;;;3.43;2.67;;;;;;;4.23;100.00;102047.63;5004437;28;20181;-68
2023/04/27 04:19:59;;;;;;;4.43;2.80;;;;;;;3.97;100.00;102048.94;5004726;28;20530;-68
2023/04/27 04:22:25;;;;;;;4.23;3.83;;;;;;;3.89;100.00;102038.09;4999811;28;20444;-68
2023/04/27 04:24:50;;;;;;;4.03;2.80;;;;;;;4.40;100.00;102058.66;5001546;28;20470;-68
2023/04/27 04:27:15;;;;;;;4.17;2.70;;;;;;;4.16;100.00;102048.25;5004204;28;20615;-68
2023/04/27 04:29:41;;;;;;;3.07;2.67;;;;;;;3.84;100.00;102010.13;5000727;28;20243;-68
2023/04/27 04:32:08;;;;;;;3.20;2.90;;;;;;;4.33;100.00;102044.19;4993626;28;20189;-68
2023/04/27 04:34:34;;;;;;;4.43;3.10;;;;;;;4.07;100.00;101988.78;4995940;28;20185;-68
2023/04/27 04:37:00;;;;;;;4.80;2.80;;;;;;;3.96;100.00;102024.19;4998268;28;20955;-68
2023/04/27 04:39:32;;;;;;;3.10;2.80;;;;;;;3.35;100.00;102016.75;4993657;28;20747;-68
2023/04/27 04:41:58;;;;;;;5.40;2.83;;;;;;;3.89;100.00;102030.97;4985856;28;20472;-68
2023/04/27 04:44:23;;;;;;;7.83;3.17;;;;;;;3.79;100.00;102007.03;5004539;28;20475;-68
2023/04/27 04:46:49;;;;;;;3.40;2.50;;;;;;;3.92;100.00;102048.47;4984299;28;20193;-68
2023/04/27 04:49:15;;;;;;;4.63;3.67;;;;;;;4.19;100.00;102043.53;4992807;28;20242;-68
2023/04/27 04:51:42;;;;;;;3.87;2.80;;;;;;;4.28;100.00;102032.16;4992309;28;20987;-69
2023/04/27 04:54:08;;;;;;;3.63;3.30;;;;;;;4.12;100.00;101996.38;4966411;28;20603;-69
2023/04/27 04:56:33;;;;;;;4.20;2.90;;;;;;;3.52;100.00;101927.84;4975626;28;20943;-69
2023/04/27 04:58:58;;;;;;;3.87;3.20;;;;;;;3.39;100.00;101898.84;4999546;28;20232;-69
2023/04/27 05:01:24;;;;;;;6.60;2.53;;;;;;;4.26;100.00;102028.78;4999486;28;20189;-69
2023/04/27 05:03:49;;;;;;;4.23;3.00;;;;;;;4.38;100.00;102028.72;4999680;28;20193;-69
2023/04/27 05:06:15;;;;;;;2.60;2.03;;;;;;;4.44;100.00;102028.19;4984467;28;20216;-69
2023/04/27 05:08:40;;;;;;;3.93;2.60;;;;;;;4.30;100.00;101986.84;5001043;28;20209;-69
2023/04/27 05:11:06;;;;;;;5.87;2.47;;;;;;;4.34;100.00;101988.31;5000235;28;20267;-69
2023/04/27 05:13:31;;;;;;;4.77;2.33;;;;;;;4.62;100.00;102021.31;5003080;28;20555;-69
2023/04/27 05:15:57;;;;;;;4.53;2.73;;;;;;;4.34;100.00;101979.47;4999812;28;20274;-69
2023/04/27 05:18:22;;;;;;;4.93;3.00;;;;;;;4.26;100.00;101942.94;5001904;28;20217;-69
2023/04/27 05:20:48;;;;;;;2.97;2.30;;;;;;;4.90;100.00;102034.91;4988135;28;20666;-69
2023/04/27 05:23:13;;;;;;;3.57;3.27;;;;;;;4.85;100.00;102039.78;5005610;28;20448;-69
2023/04/27 05:25:41;;;;;;;3.50;3.00;;;;;;;4.43;100.00;101950.31;5000667;28;20212;-69
2023/04/27 05:28:08;;;;;;;6.63;3.10;;;;;;;5.14;100.00;102059.38;5001542;28;20239;-69
2023/04/27 05:30:34;;;;;;;5.47;3.00;;;;;;;5.10;100.00;102012.75;4980969;28;20495;-69
2023/04/27 05:33:00;;;;;;;3.13;2.83;;;;;;;5.08;100.00;102046.59;4981777;28;20510;-69
2023/04/27 05:35:25;;;;;;;5.77;3.93;;;;;;;5.03;100.00;102029.34;5002605;28;20455;-69
2023/04/27 05:37:51;;;;;;;8.60;3.67;;;;;;;4.56;100.00;101942.13;5004025;28;20209;-69
2023/04/27 05:40:16;;;;;;;4.77;3.17;;;;;;;5.14;100.00;102008.81;5003028;28;20273;-69
2023/04/27 05:42:42;;;;;;;5.83;3.30;;;;;;;4.14;100.00;101828.00;5003119;28;20196;-69
2023/04/27 05:45:08;;;;;;;7.90;2.93;;;;;;;5.65;100.00;102055.75;4984990;28;20217;-69
2023/04/27 05:47:33;;;;;;;4.63;3.37;;;;;;;5.82;100.00;102053.41;5007818;28;20668;-69
2023/04/27 05:49:58;;;;;;;5.50;3.27;;;;;;;5.43;100.00;101990.28;4989457;28;20559;-69
2023/04/27 05:52:29;;;;;;;4.33;3.13;;;;;;;5.79;100.00;102037.72;4984655;28;20195;-69
2023/04/27 05:54:55;;;;;;;6.50;3.37;;;;;;;5.27;100.00;101935.94;4983625;28;20215;-69
2023/04/27 05:57:21;;;;;;;7.47;2.50;;;;;;;6.06;100.00;102083.19;4993709;28;20535;-69
2023/04/27 05:59:46;;;;;;;4.87;2.43;;;;;;;6.22;100.00;102071.13;5002312;28;20449;-69
2023/04/27 06:02:12;;;;;;;6.70;3.33;;;;;;;6.11;100.00;102083.63;5002443;28;20276;-69
2023/04/27 06:04:37;;;;;;;6.20;3.17;;;;;;;5.68;100.00;101990.75;5000238;28;20574;-69
2023/04/27 06:07:10;;;;;;;7.17;2.20;;;;;;;6.22;100.00;102072.00;5004984;28;20205;-69
2023/04/27 06:09:36;;;;;;;5.37;2.43;;;;;;;5.40;100.00;101931.19;5005552;28;20706;-69
2023/04/27 06:12:03;;;;;;;5.27;2.93;;;;;;;6.43;100.00;102081.66;5005056;28;20442;-69
2023/04/27 06:14:30;;;;;;;4.70;2.40;;;;;;;6.23;100.00;102041.69;4987275;28;20516;-69
2023/04/27 06:16:55;;;;;;;4.70;2.90;;;;;;;6.00;100.00;101998.50;5003577;28;20487;-69
2023/04/27 06:19:21;;;;;;;6.53;3.13;;;;;;;6.17;100.00;102030.75;5004810;28;20474;-69
2023/04/27 06:21:46;;;;;;;4.03;2.70;;;;;;;6.23;100.00;102009.72;5006309;28;20651;-69
2023/04/27 06:24:12;;;;;;;5.53;3.23;;;;;;;6.59;100.00;102057.91;4998678;28;20276;-69
2023/04/27 06:26:37;;;;;;;5.63;2.77;;;;;;;6.13;100.00;101966.25;4988008;28;20221;-69
2023/04/27 06:29:03;;;;;;;3.77;2.57;;;;;;;6.32;100.00;102013.34;4983540;28;20276;-69
2023/04/27 06:31:29;;;;;;;3.10;2.17;;;;;;;7.01;100.00;102110.91;4983393;28;20593;-69
2023/04/27 06:33:54;;;;;;;3.53;2.47;;;;;;;6.92;100.00;102067.25;4999321;28;20272;-70
2023/04/27 06:36:20;;;;;;;4.60;2.30;;;;;;;6.68;100.00;102069.53;5003746;28;20605;-70
2023/04/27 06:38:45;;;;;;;3.63;3.13;;;;;;;6.16;100.00;101995.25;5005134;28;20643;-69
2023/04/27 06:41:11;;;;;;;3.87;3.00;;;;;;;6.71;100.00;102064.78;4989291;28;20211;-69
2023/04/27 06:43:36;;;;;;;4.93;3.97;;;;;;;5.91;100.00;101959.38;5003516;28;20197;-69
2023/04/27 06:46:03;;;;;;;5.27;2.87;;;;;;;6.80;100.00;102073.75;4986248;28;20213;-70
2023/04/27 06:48:28;;;;;;;5.03;2.97;;;;;;;6.85;100.00;102094.66;5003985;28;20205;-69
2023/04/27 06:50:54;;;;;;;5.90;3.17;;;;;;;6.53;100.00;102061.16;5003038;28;20451;-69
2023/04/27 06:53:19;;;;;;;3.43;2.53;;;;;;;6.74;100.00;102092.97;4990710;28;20189;-69
2023/04/27 06:55:45;;;;;;;5.30;3.30;;;;;;;6.15;100.00;102043.38;5004744;28;20177;-69
2023/04/27 06:58:10;;;;;;;4.30;3.30;;;;;;;6.59;100.00;102116.56;4995189;28;20216;-69
2023/04/27 07:00:36;;;;;;;11.03;3.87;;;;;;;6.74;100.00;102117.84;5006672;28;20204;-70
2023/04/27 07:03:01;;;;;;;4.37;3.40;;;;;;;6.25;100.00;102062.84;5009512;28;20268;-69
2023/04/27 07:05:26;;;;;;;6.20;3.93;;;;;;;6.71;100.00;102095.91;5006171;28;20629;-69
2023/04/27 07:07:52;;;;;;;4.40;3.20;;;;;;;6.73;100.00;102102.81;5005817;28;20201;-69
2023/04/27 07:10:17;;;;;;;5.20;3.07;;;;;;;6.65;100.00;102043.19;5001865;28;20247;-69
2023/04/27 07:12:43;;;;;;;4.50;3.10;;;;;;;7.11;100.00;102100.19;5002678;28;20208;-69
2023/04/27 07:15:09;;;;;;;7.83;3.90;;;;;;;6.44;100.00;102038.84;4999689;28;20204;-69
2023/04/27 07:17:34;;;;;;;11.53;3.67;;;;;;;6.97;100.00;102101.47;5003461;28;20247;-69
2023/04/27 07:20:02;;;;;;;5.70;4.07;;;;;;;7.21;100.00;102130.38;5002601;28;20443;-69
2023/04/27 07:22:28;;;;;;;7.37;3.23;;;;;;;6.57;100.00;102035.91;4987515;28;20189;-69
2023/04/27 07:24:53;;;;;;;3.50;3.07;;;;;;;7.14;100.00;102122.09;4984443;28;20901;-69
2023/04/27 07:27:19;;;;;;;5.63;2.90;;;;;;;6.52;100.00;101983.00;4990192;28;20631;-69
2023/04/27 07:29:44;;;;;;;5.87;3.13;;;;;;;7.24;100.00;102124.75;4986666;28;20272;-69
2023/04/27 07:32:10;;;;;;;3.93;2.70;;;;;;;7.17;100.00;102113.78;5005664;28;20647;-69
2023/04/27 07:34:35;;;;;;;3.50;2.60;;;;;;;7.14;100.00;102119.41;5003969;28;20644;-69
2023/04/27 07:37:01;;;;;;;10.43;3.33;;;;;;;7.22;100.00;102108.03;4988456;28;20197;-69
2023/04/27 07:39:27;;;;;;;4.87;3.20;;;;;;;7.46;100.00;102119.03;4985806;28;20686;-69
2023/04/27 07:41:53;;;;;;;7.07;3.57;;;;;;;7.41;100.00;102140.00;5003795;28;20476;-69
2023/04/27 07:44:18;;;;;;;5.30;2.90;;;;;;;7.34;100.00;102127.38;5001300;28;20197;-69
2023/04/27 07:46:46;;;;;;;3.83;2.50;;;;;;;6.88;100.00;102028.50;5001336;28;20213;-69
2023/04/27 07:49:12;;;;;;;6.00;3.90;;;;;;;6.70;100.00;101982.25;4985691;28;20722;-69
2023/04/27 07:51:38;;;;;;;3.60;2.67;;;;;;;7.87;100.00;102130.22;4989249;28;20969;-69
2023/04/27 07:54:05;;;;;;;3.63;3.10;;;;;;;7.62;100.00;102137.09;4986485;28;20503;-69
2023/04/27 07:56:31;;;;;;;6.43;3.97;;;;;;;7.32;100.00;102066.13;5003290;28;20438;-70
2023/04/27 07:58:56;;;;;;;4.70;2.50;;;;;;;7.69;100.00;102142.66;4985483;28;20464;-70
2023/04/27 08:01:21;;;;;;;5.43;2.43;;;;;;;7.54;100.00;102146.81;4981488;23;20233;-71
2023/04/27 08:03:47;;;;;;;4.40;2.37;;;;;;;7.15;100.00;102051.75;4976278;28;20237;-71
2023/04/27 08:06:12;;;;;;;3.60;2.43;;;;;;;7.62;100.00;102089.03;4978199;28;20210;-72
2023/04/27 08:08:38;;;;;;;4.60;2.53;;;;;;;7.07;100.00;102051.63;4978841;28;20193;-71
2023/04/27 08:11:03;;;;;;;7.23;2.60;;;;;;;7.10;100.00;102002.47;4964088;28;20740;-72
2023/04/27 08:13:29;;;;;;;6.20;2.50;;;;;;;7.49;100.00;102077.84;4966602;28;20177;-71
2023/04/27 08:15:58;;;;;;;6.07;2.70;;;;;;;7.00;100.00;101959.81;4979978;28;20183;-71
2023/04/27 08:18:24;;;;;;;3.70;2.23;;;;;;;7.21;100.00;102008.44;4980386;28;20241;-71
2023/04/27 08:20:50;;;;;;;4.17;2.40;;;;;;;8.07;100.00;102130.94;4974898;28;20468;-71
2023/04/27 08:23:15;;;;;;;4.83;2.40;;;;;;;7.20;100.00;102009.44;4963477;28;20451;-70
2023/04/27 08:25:41;;;;;;;7.10;2.73;;;;;;;7.86;100.00;102127.69;4956043;28;20601;-71
2023/04/27 08:28:06;;;;;;;3.20;2.80;;;;;;;7.24;100.00;102010.00;4977226;28;20190;-70
2023/04/27 08:30:32;;;;;;;4.83;2.97;;;;;;;7.87;100.00;102138.25;4955381;28;20257;-71
2023/04/27 08:32:57;;;;;;;3.40;2.77;;;;;;;7.67;100.00;102105.44;4962622;28;20190;-71
2023/04/27 08:35:22;;;;;;;3.30;2.10;;;;;;;8.14;100.00;102158.75;4962912;28;20210;-71
2023/04/27 08:37:48;;;;;;;4.60;2.70;;;;;;;8.32;100.00;102155.25;4959582;28;20194;-71
2023/04/27 08:40:14;;;;;;;3.20;2.23;;;;;;;7.79;100.00;102103.41;4981093;28;20672;-71
2023/04/27 08:42:52;;;;;;;4.70;2.63;;;;;;;8.30;100.00;102136.69;4980159;28;20192;-70
2023/04/27 08:45:18;;;;;;;6.17;2.77;;;;;;;7.59;100.00;102029.75;4976163;28;20287;-70
2023/04/27 08:47:43;;;;;;;8.80;2.50;;;;;;;7.83;100.00;102067.38;4976046;28;20445;-71
2023/04/27 08:50:10;;;;;;;3.73;2.20;;;;;;;7.72;100.00;102024.84;4975727;28;20878;-71
2023/04/27 08:52:36;;;;;;;5.47;2.80;;;;;;;7.60;100.00;102028.75;4968631;28;20194;-70
2023/04/27 08:55:03;;;;;;;3.90;2.63;;;;;;;8.24;100.00;102097.19;4979779;28;20935;-71
2023/04/27 08:57:28;;;;;;;6.20;2.47;;;;;;;8.70;100.00;102122.03;4977002;28;20444;-70
2023/04/27 08:59:59;;;;;;;7.03;2.60;;;;;;;8.82;100.00;102131.50;4975627;28;20487;-70
2023/04/27 09:02:28;;;;;;;4.10;2.40;;;;;;;8.68;100.00;102142.75;4978678;28;20269;-70
2023/04/27 09:04:54;;;;;;;4.77;2.90;;;;;;;8.23;100.00;102074.13;4975131;28;20504;-71
2023/04/27 09:07:20;;;;;;;4.63;2.93;;;;;;;7.89;100.00;102049.91;4978600;28;21014;-70
2023/04/27 09:09:47;;;;;;;4.87;2.33;;;;;;;8.04;100.00;102066.25;4972694;28;20972;-71
2023/04/27 09:12:14;;;;;;;11.43;2.60;;;;;;;8.80;100.00;102143.34;4960249;28;20441;-71
2023/04/27 09:14:40;;;;;;;3.17;2.40;;;;;;;9.04;100.00;102145.34;4976001;28;20535;-71
2023/04/27 09:17:06;;;;;;;4.23;3.00;;;;;;;8.34;100.00;102068.56;4977489;28;21006;-71
2023/04/27 09:19:31;;;;;;;2.70;2.50;;;;;;;8.20;100.00;102061.06;4975803;28;20476;-71
2023/04/27 09:22:08;;;;;;;5.93;2.73;;;;;;;7.93;100.00;102016.56;4975321;28;20274;-71
2023/04/27 09:24:33;;;;;;;5.93;2.70;;;;;;;8.53;100.00;102147.81;4975585;28;20241;-70
2023/04/27 09:27:00;;;;;;;3.63;2.40;;;;;;;8.88;100.00;102146.09;4962608;28;20540;-71
2023/04/27 09:29:36;;;;;;;8.90;2.93;;;;;;;8.41;100.00;102076.81;4978204;28;20244;-70
2023/04/27 09:32:02;;;;;;;3.93;2.90;;;;;;;8.46;100.00;102106.63;4977672;28;20510;-70
2023/04/27 09:34:38;;;;;;;6.03;2.80;;;;;;;8.31;100.00;102071.53;4977899;28;20453;-70
2023/04/27 09:37:04;;;;;;;5.03;3.00;;;;;;;8.83;100.00;102135.84;4970690;28;20433;-70
2023/04/27 09:39:30;;;;;;;4.47;2.53;;;;;;;8.71;100.00;102158.50;4970150;28;20809;-71
2023/04/27 09:41:56;;;;;;;4.90;2.47;;;;;;;8.71;100.00;102131.75;4976625;28;20183;-70
2023/04/27 09:44:22;;;;;;;5.17;2.60;;;;;;;9.03;100.00;102152.56;4965377;28;20652;-71
2023/04/27 09:46:48;;;;;;;5.43;2.60;;;;;;;9.03;100.00;102152.56;4980524;28;20237;-71
2023/04/27 09:49:16;;;;;;;3.20;2.50;;;;;;;8.54;100.00;102028.31;4979447;28;20506;-71
2023/04/27 09:51:41;;;;;;;5.43;2.30;;;;;;;9.15;100.00;102134.41;4977294;28;20473;-70
2023/04/27 09:54:10;;;;;;;4.93;2.73;;;;;;;8.26;100.00;102011.50;4973769;28;20892;-70
2023/04/27 09:57:13;;;;;;;4.57;2.30;;;;;;;9.30;100.00;102142.69;4965443;28;20530;-71
2023/04/27 09:59:54;;;;;;;7.87;3.13;;;;;;;8.47;100.00;102024.56;4960137;28;20448;-71
2023/04/27 10:02:22;;;;;;;4.97;2.80;;;;;;;8.53;100.00;102007.88;4977160;28;20543;-71
2023/04/27 10:05:11;;;;;;;2.37;2.17;;;;;;;9.36;100.00;102143.88;4975705;28;20453;-71
2023/04/27 10:07:39;;;;;;;4.70;2.63;;;;;;;9.12;100.00;102163.31;4976975;28;21010;-71
2023/04/27 10:10:06;;;;;;;6.40;3.00;;;;;;;9.05;100.00;102149.69;4975367;28;21101;-71
2023/04/27 10:12:35;;;;;;;4.57;2.70;;;;;;;9.03;100.00;102149.03;4969298;28;20605;-71
2023/04/27 10:15:15;;;;;;;3.80;3.00;;;;;;;8.58;100.00;102085.81;4976759;28;20448;-71
2023/04/27 10:17:57;;;;;;;5.10;2.93;;;;;;;9.03;100.00;102152.56;4974064;28;20450;-71
2023/04/27 10:20:30;;;;;;;4.50;2.73;;;;;;;9.21;100.00;102149.00;4981649;28;20979;-71
2023/04/27 10:22:57;;;;;;;5.00;3.00;;;;;;;8.82;100.00;102083.34;4979025;28;20498;-71
2023/04/27 10:25:28;;;;;;;6.73;3.53;;;;;;;8.84;100.00;102093.88;4976441;28;20473;-71
2023/04/27 10:27:59;;;;;;;6.20;3.00;;;;;;;9.15;100.00;102150.47;4975741;28;20437;-71
2023/04/27 10:30:30;;;;;;;4.57;2.97;;;;;;;9.00;100.00;102099.34;4975412;28;20461;-71
2023/04/27 10:32:58;;;;;;;3.73;3.07;;;;;;;9.26;100.00;102136.81;4977082;28;20437;-71
2023/04/27 10:35:38;;;;;;;5.27;3.20;;;;;;;9.23;100.00;102149.69;4979903;28;20442;-71
2023/04/27 10:38:08;;;;;;;5.80;3.37;;;;;;;8.98;100.00;102121.91;4977199;28;20542;-71
2023/04/27 10:40:36;;;;;;;4.63;3.40;;;;;;;8.67;100.00;102052.78;4977444;28;20925;-72
2023/04/27 10:43:12;;;;;;;4.83;3.13;;;;;;;9.25;100.00;102126.25;4976989;28;20454;-71
2023/04/27 10:45:37;;;;;;;7.20;3.40;;;;;;;9.50;100.00;102145.97;4976244;28;20476;-71
2023/04/27 10:48:04;;;;;;;6.63;4.60;;;;;;;9.33;100.00;102137.00;4959663;28;20817;-71
2023/04/27 10:50:30;;;;;;;6.20;3.70;;;;;;;9.56;100.00;102158.72;4978775;28;20208;-71
2023/04/27 10:53:02;;;;;;;8.30;3.20;;;;;;;9.56;100.00;102144.50;4979405;28;20552;-71
2023/04/27 10:55:30;;;;;;;3.87;3.13;;;;;;;9.34;100.00;102119.94;4973783;28;20441;-71
2023/04/27 10:57:56;;;;;;;4.80;3.10;;;;;;;9.29;100.00;102108.88;4963894;28;20951;-71
2023/04/27 11:00:27;;;;;;;8.67;3.53;;;;;;;8.55;100.00;102014.75;4962987;28;20915;-71
2023/04/27 11:02:55;;;;;;;6.47;2.80;;;;;;;8.73;100.00;102030.75;4975242;28;20480;-70
2023/04/27 11:05:28;;;;;;;5.93;3.10;;;;;;;9.19;100.00;102127.72;4977714;28;20544;-71
2023/04/27 11:08:17;;;;;;;6.40;3.00;;;;;;;9.14;100.00;102119.34;4977034;28;20448;-71
2023/04/27 11:10:50;;;;;;;6.77;2.33;;;;;;;8.42;100.00;102000.13;4975464;28;20468;-71
2023/04/27 11:13:21;;;;;;;6.80;2.30;;;;;;;9.22;100.00;102142.63;4977781;28;20892;-71
2023/04/27 11:15:57;;;;;;;3.90;2.17;;;;;;;8.53;100.00;102043.50;4973400;28;20920;-71
2023/04/27 11:18:25;;;;;;;5.57;2.63;;;;;;;9.21;100.00;102149.81;4977498;28;20473;-71
2023/04/27 11:20:53;;;;;;;6.73;2.33;;;;;;;9.23;100.00;102144.31;4980053;28;20547;-71
2023/04/27 11:23:35;;;;;;;4.73;2.40;;;;;;;8.90;100.00;102098.59;4980158;28;20457;-71